sensor_id;sensor_type;location;lat;lon;timestamp;temperature;humidity
39493;DHT22;25176;51.060;3.720;2022-12-13T00:00:01;0.00;99.90
39493;DHT22;25176;51.060;3.720;2022-12-13T00:02:27;0.00;99.90
39493;DHT22;25176;51.060;3.720;2022-12-13T00:04:52;-0.10;99.90
39493;DHT22;25176;51.060;3.720;2022-12-13T00:07:17;-0.10;99.90
39493;DHT22;25176;51.060;3.720;2022-12-13T00:09:43;-0.20;99.90
39493;DHT22;25176;51.060;3.720;2022-12-13T00:12:08;-0.20;99.90
39493;DHT22;25176;51.060;3.720;2022-12-13T00:14:34;-0.20;99.90
39493;DHT22;25176;51.060;3.720;2022-12-13T00:16:59;-0.10;99.90
39493;DHT22;25176;51.060;3.720;2022-12-13T00:19:25;0.00;99.90
39493;DHT22;25176;51.060;3.720;2022-12-13T00:21:50;0.00;99.90
39493;DHT22;25176;51.060;3.720;2022-12-13T00:24:16;0.10;99.90
39493;DHT22;25176;51.060;3.720;2022-12-13T00:26:41;0.10;99.90
39493;DHT22;25176;51.060;3.720;2022-12-13T00:29:07;0.20;99.90
39493;DHT22;25176;51.060;3.720;2022-12-13T00:31:33;0.20;99.90
39493;DHT22;25176;51.060;3.720;2022-12-13T00:33:59;0.30;99.90
39493;DHT22;25176;51.060;3.720;2022-12-13T00:36:24;0.10;99.90
39493;DHT22;25176;51.060;3.720;2022-12-13T00:38:50;0.10;99.90
39493;DHT22;25176;51.060;3.720;2022-12-13T00:41:25;0.10;99.90
39493;DHT22;25176;51.060;3.720;2022-12-13T00:43:50;0.10;99.90
39493;DHT22;25176;51.060;3.720;2022-12-13T00:46:17;0.00;99.90
39493;DHT22;25176;51.060;3.720;2022-12-13T00:48:43;0.00;99.90
39493;DHT22;25176;51.060;3.720;2022-12-13T00:51:09;0.10;99.90
39493;DHT22;25176;51.060;3.720;2022-12-13T00:53:35;0.00;99.90
39493;DHT22;25176;51.060;3.720;2022-12-13T00:56:01;-0.10;99.90
39493;DHT22;25176;51.060;3.720;2022-12-13T00:58:26;0.00;99.90
39493;DHT22;25176;51.060;3.720;2022-12-13T01:00:52;0.00;99.90
39493;DHT22;25176;51.060;3.720;2022-12-13T01:03:17;0.10;99.90
39493;DHT22;25176;51.060;3.720;2022-12-13T01:05:49;0.10;99.90
39493;DHT22;25176;51.060;3.720;2022-12-13T01:08:15;0.20;99.90
39493;DHT22;25176;51.060;3.720;2022-12-13T01:10:41;0.10;99.90
39493;DHT22;25176;51.060;3.720;2022-12-13T01:13:07;0.20;99.90
39493;DHT22;25176;51.060;3.720;2022-12-13T01:15:32;0.10;99.90
39493;DHT22;25176;51.060;3.720;2022-12-13T01:17:58;0.20;99.90
39493;DHT22;25176;51.060;3.720;2022-12-13T01:20:23;0.20;99.90
39493;DHT22;25176;51.060;3.720;2022-12-13T01:22:49;0.20;99.90
39493;DHT22;25176;51.060;3.720;2022-12-13T01:25:14;0.20;99.90
39493;DHT22;25176;51.060;3.720;2022-12-13T01:27:40;0.10;99.90
39493;DHT22;25176;51.060;3.720;2022-12-13T01:30:05;0.10;99.90
39493;DHT22;25176;51.060;3.720;2022-12-13T01:32:31;0.00;99.90
39493;DHT22;25176;51.060;3.720;2022-12-13T01:34:57;0.00;99.90
39493;DHT22;25176;51.060;3.720;2022-12-13T01:37:22;-0.10;99.90
39493;DHT22;25176;51.060;3.720;2022-12-13T01:39:48;-0.20;99.90
39493;DHT22;25176;51.060;3.720;2022-12-13T01:42:13;-0.20;99.90
39493;DHT22;25176;51.060;3.720;2022-12-13T01:49:57;-0.30;99.90
39493;DHT22;25176;51.060;3.720;2022-12-13T01:52:24;-0.20;99.90
39493;DHT22;25176;51.060;3.720;2022-12-13T01:54:50;-0.30;99.90
39493;DHT22;25176;51.060;3.720;2022-12-13T01:57:17;-0.40;99.90
39493;DHT22;25176;51.060;3.720;2022-12-13T01:59:44;-0.40;99.90
39493;DHT22;25176;51.060;3.720;2022-12-13T02:02:11;-0.30;99.90
39493;DHT22;25176;51.060;3.720;2022-12-13T02:04:56;-0.50;99.90
39493;DHT22;25176;51.060;3.720;2022-12-13T02:07:25;-0.50;99.90
39493;DHT22;25176;51.060;3.720;2022-12-13T02:09:52;-0.50;99.90
39493;DHT22;25176;51.060;3.720;2022-12-13T02:12:19;-0.70;99.90
39493;DHT22;25176;51.060;3.720;2022-12-13T02:14:45;-0.60;99.90
39493;DHT22;25176;51.060;3.720;2022-12-13T02:25:07;-0.50;99.90
39493;DHT22;25176;51.060;3.720;2022-12-13T02:37:58;-0.40;99.90
39493;DHT22;25176;51.060;3.720;2022-12-13T02:40:25;-0.50;99.90
39493;DHT22;25176;51.060;3.720;2022-12-13T02:43:06;-0.50;99.90
39493;DHT22;25176;51.060;3.720;2022-12-13T02:45:37;-0.60;99.90
39493;DHT22;25176;51.060;3.720;2022-12-13T02:48:03;-0.70;99.90
39493;DHT22;25176;51.060;3.720;2022-12-13T02:50:30;-0.60;99.90
39493;DHT22;25176;51.060;3.720;2022-12-13T02:52:56;-0.70;99.90
39493;DHT22;25176;51.060;3.720;2022-12-13T02:55:22;-0.80;99.90
39493;DHT22;25176;51.060;3.720;2022-12-13T02:57:48;-0.80;99.90
39493;DHT22;25176;51.060;3.720;2022-12-13T03:00:15;-0.90;99.90
39493;DHT22;25176;51.060;3.720;2022-12-13T03:10:32;-0.80;99.90
39493;DHT22;25176;51.060;3.720;2022-12-13T03:13:06;-0.70;99.90
39493;DHT22;25176;51.060;3.720;2022-12-13T03:15:56;-0.60;99.90
39493;DHT22;25176;51.060;3.720;2022-12-13T03:18:22;-0.60;99.90
39493;DHT22;25176;51.060;3.720;2022-12-13T03:20:49;-0.50;99.90
39493;DHT22;25176;51.060;3.720;2022-12-13T03:23:16;-0.50;99.90
39493;DHT22;25176;51.060;3.720;2022-12-13T03:25:42;-0.50;99.90
39493;DHT22;25176;51.060;3.720;2022-12-13T03:28:08;-0.60;99.90
39493;DHT22;25176;51.060;3.720;2022-12-13T03:30:34;-0.70;99.90
39493;DHT22;25176;51.060;3.720;2022-12-13T03:32:59;-0.70;99.90
39493;DHT22;25176;51.060;3.720;2022-12-13T03:35:25;-0.80;99.90
39493;DHT22;25176;51.060;3.720;2022-12-13T03:37:51;-0.90;99.90
39493;DHT22;25176;51.060;3.720;2022-12-13T03:40:17;-1.00;99.90
39493;DHT22;25176;51.060;3.720;2022-12-13T03:42:43;-1.10;99.90
39493;DHT22;25176;51.060;3.720;2022-12-13T03:45:08;-1.00;99.90
39493;DHT22;25176;51.060;3.720;2022-12-13T03:47:34;-0.90;99.90
39493;DHT22;25176;51.060;3.720;2022-12-13T03:49:59;-0.70;99.90
39493;DHT22;25176;51.060;3.720;2022-12-13T03:52:25;-0.80;99.90
39493;DHT22;25176;51.060;3.720;2022-12-13T03:54:50;-0.70;99.90
39493;DHT22;25176;51.060;3.720;2022-12-13T03:57:16;-0.60;99.90
39493;DHT22;25176;51.060;3.720;2022-12-13T03:59:41;-0.70;99.90
39493;DHT22;25176;51.060;3.720;2022-12-13T04:02:07;-0.70;99.90
39493;DHT22;25176;51.060;3.720;2022-12-13T04:04:32;-0.90;99.90
39493;DHT22;25176;51.060;3.720;2022-12-13T04:06:58;-1.00;99.90
39493;DHT22;25176;51.060;3.720;2022-12-13T04:09:23;-1.00;99.90
39493;DHT22;25176;51.060;3.720;2022-12-13T04:11:49;-1.20;99.90
39493;DHT22;25176;51.060;3.720;2022-12-13T04:14:33;-1.20;99.90
39493;DHT22;25176;51.060;3.720;2022-12-13T04:16:58;-1.20;99.90
39493;DHT22;25176;51.060;3.720;2022-12-13T04:19:24;-1.30;99.90
39493;DHT22;25176;51.060;3.720;2022-12-13T04:21:52;-1.40;99.90
39493;DHT22;25176;51.060;3.720;2022-12-13T04:24:18;-1.50;99.90
39493;DHT22;25176;51.060;3.720;2022-12-13T04:26:44;-1.50;99.90
39493;DHT22;25176;51.060;3.720;2022-12-13T04:29:09;-1.50;99.90
39493;DHT22;25176;51.060;3.720;2022-12-13T04:31:35;-1.40;99.90
39493;DHT22;25176;51.060;3.720;2022-12-13T04:34:00;-1.30;99.90
39493;DHT22;25176;51.060;3.720;2022-12-13T04:36:26;-1.20;99.90
39493;DHT22;25176;51.060;3.720;2022-12-13T04:38:51;-1.30;99.90
39493;DHT22;25176;51.060;3.720;2022-12-13T04:41:17;-1.40;99.90
39493;DHT22;25176;51.060;3.720;2022-12-13T04:43:43;-1.30;99.90
39493;DHT22;25176;51.060;3.720;2022-12-13T04:46:09;-1.20;99.90
39493;DHT22;25176;51.060;3.720;2022-12-13T04:48:34;-1.30;99.90
39493;DHT22;25176;51.060;3.720;2022-12-13T04:51:00;-1.20;99.90
39493;DHT22;25176;51.060;3.720;2022-12-13T04:53:25;-1.00;99.90
39493;DHT22;25176;51.060;3.720;2022-12-13T04:55:51;-0.90;99.90
39493;DHT22;25176;51.060;3.720;2022-12-13T04:58:17;-0.80;99.90
39493;DHT22;25176;51.060;3.720;2022-12-13T05:00:42;-0.80;99.90
39493;DHT22;25176;51.060;3.720;2022-12-13T05:03:08;-0.70;99.90
39493;DHT22;25176;51.060;3.720;2022-12-13T05:05:33;-0.70;99.90
39493;DHT22;25176;51.060;3.720;2022-12-13T05:08:02;-0.70;99.90
39493;DHT22;25176;51.060;3.720;2022-12-13T05:10:27;-0.80;99.90
39493;DHT22;25176;51.060;3.720;2022-12-13T05:12:53;-0.80;99.90
39493;DHT22;25176;51.060;3.720;2022-12-13T05:15:18;-0.90;99.90
39493;DHT22;25176;51.060;3.720;2022-12-13T05:17:44;-0.90;99.90
39493;DHT22;25176;51.060;3.720;2022-12-13T05:20:09;-0.80;99.90
39493;DHT22;25176;51.060;3.720;2022-12-13T05:22:35;-0.70;99.90
39493;DHT22;25176;51.060;3.720;2022-12-13T05:25:02;-0.70;99.90
39493;DHT22;25176;51.060;3.720;2022-12-13T05:27:27;-0.70;99.90
39493;DHT22;25176;51.060;3.720;2022-12-13T05:29:53;-0.80;99.90
39493;DHT22;25176;51.060;3.720;2022-12-13T05:32:19;-1.10;99.90
39493;DHT22;25176;51.060;3.720;2022-12-13T05:34:44;-1.20;99.90
39493;DHT22;25176;51.060;3.720;2022-12-13T05:37:10;-1.20;99.90
39493;DHT22;25176;51.060;3.720;2022-12-13T05:39:36;-1.00;99.90
39493;DHT22;25176;51.060;3.720;2022-12-13T05:42:01;-1.10;99.90
39493;DHT22;25176;51.060;3.720;2022-12-13T05:44:26;-1.00;99.90
39493;DHT22;25176;51.060;3.720;2022-12-13T05:46:52;-0.90;99.90
39493;DHT22;25176;51.060;3.720;2022-12-13T05:49:17;-0.80;99.90
39493;DHT22;25176;51.060;3.720;2022-12-13T05:51:43;-0.70;99.90
39493;DHT22;25176;51.060;3.720;2022-12-13T05:54:08;-0.70;99.90
39493;DHT22;25176;51.060;3.720;2022-12-13T05:56:34;-0.70;99.90
39493;DHT22;25176;51.060;3.720;2022-12-13T05:58:59;-0.70;99.90
39493;DHT22;25176;51.060;3.720;2022-12-13T06:01:25;-0.70;99.90
39493;DHT22;25176;51.060;3.720;2022-12-13T06:03:50;-0.80;99.90
39493;DHT22;25176;51.060;3.720;2022-12-13T06:06:16;-0.80;99.90
39493;DHT22;25176;51.060;3.720;2022-12-13T06:08:42;-0.60;99.90
39493;DHT22;25176;51.060;3.720;2022-12-13T06:11:07;-0.60;99.90
39493;DHT22;25176;51.060;3.720;2022-12-13T06:13:33;-0.60;99.90
39493;DHT22;25176;51.060;3.720;2022-12-13T06:16:00;-0.60;99.90
39493;DHT22;25176;51.060;3.720;2022-12-13T06:18:26;-0.60;99.90
39493;DHT22;25176;51.060;3.720;2022-12-13T06:20:55;-0.50;99.90
39493;DHT22;25176;51.060;3.720;2022-12-13T06:23:22;-0.70;99.90
39493;DHT22;25176;51.060;3.720;2022-12-13T06:25:47;-0.90;99.90
39493;DHT22;25176;51.060;3.720;2022-12-13T06:28:13;-0.90;99.90
39493;DHT22;25176;51.060;3.720;2022-12-13T06:30:38;-1.10;99.90
39493;DHT22;25176;51.060;3.720;2022-12-13T06:33:04;-0.90;99.90
39493;DHT22;25176;51.060;3.720;2022-12-13T06:35:29;-0.90;99.90
39493;DHT22;25176;51.060;3.720;2022-12-13T06:37:55;-1.00;99.90
39493;DHT22;25176;51.060;3.720;2022-12-13T06:40:20;-0.90;99.90
39493;DHT22;25176;51.060;3.720;2022-12-13T06:42:46;-1.00;99.90
39493;DHT22;25176;51.060;3.720;2022-12-13T06:45:11;-1.00;99.90
39493;DHT22;25176;51.060;3.720;2022-12-13T06:47:37;-1.10;99.90
39493;DHT22;25176;51.060;3.720;2022-12-13T06:50:02;-1.00;99.90
39493;DHT22;25176;51.060;3.720;2022-12-13T06:52:28;-1.00;99.90
39493;DHT22;25176;51.060;3.720;2022-12-13T06:54:53;-1.00;99.90
39493;DHT22;25176;51.060;3.720;2022-12-13T06:57:19;-1.00;99.90
39493;DHT22;25176;51.060;3.720;2022-12-13T06:59:45;-1.10;99.90
39493;DHT22;25176;51.060;3.720;2022-12-13T07:02:11;-1.10;99.90
39493;DHT22;25176;51.060;3.720;2022-12-13T07:04:36;-1.10;99.90
39493;DHT22;25176;51.060;3.720;2022-12-13T07:07:02;-1.00;99.90
39493;DHT22;25176;51.060;3.720;2022-12-13T07:09:29;-1.00;99.90
39493;DHT22;25176;51.060;3.720;2022-12-13T07:11:55;-1.00;99.90
39493;DHT22;25176;51.060;3.720;2022-12-13T07:14:21;-1.00;99.90
39493;DHT22;25176;51.060;3.720;2022-12-13T07:16:46;-1.00;99.90
39493;DHT22;25176;51.060;3.720;2022-12-13T07:19:12;-0.90;99.90
39493;DHT22;25176;51.060;3.720;2022-12-13T07:21:37;-0.90;99.90
39493;DHT22;25176;51.060;3.720;2022-12-13T07:24:04;-0.90;99.90
39493;DHT22;25176;51.060;3.720;2022-12-13T07:26:30;-0.80;99.90
39493;DHT22;25176;51.060;3.720;2022-12-13T07:28:55;-1.00;99.90
39493;DHT22;25176;51.060;3.720;2022-12-13T07:31:21;-1.10;99.90
39493;DHT22;25176;51.060;3.720;2022-12-13T07:33:48;-1.10;99.90
39493;DHT22;25176;51.060;3.720;2022-12-13T07:36:14;-1.10;99.90
39493;DHT22;25176;51.060;3.720;2022-12-13T07:38:41;-1.30;99.90
39493;DHT22;25176;51.060;3.720;2022-12-13T07:41:06;-1.20;99.90
39493;DHT22;25176;51.060;3.720;2022-12-13T07:43:32;-1.00;99.90
39493;DHT22;25176;51.060;3.720;2022-12-13T07:45:58;-1.00;99.90
39493;DHT22;25176;51.060;3.720;2022-12-13T07:48:24;-1.10;99.90
39493;DHT22;25176;51.060;3.720;2022-12-13T07:50:51;-1.30;99.90
39493;DHT22;25176;51.060;3.720;2022-12-13T07:53:16;-1.40;99.90
39493;DHT22;25176;51.060;3.720;2022-12-13T07:55:42;-1.50;99.90
39493;DHT22;25176;51.060;3.720;2022-12-13T07:58:08;-1.50;99.90
39493;DHT22;25176;51.060;3.720;2022-12-13T08:00:35;-1.60;99.90
39493;DHT22;25176;51.060;3.720;2022-12-13T08:03:01;-1.60;99.90
39493;DHT22;25176;51.060;3.720;2022-12-13T08:05:27;-1.60;99.90
39493;DHT22;25176;51.060;3.720;2022-12-13T08:07:53;-1.60;99.90
39493;DHT22;25176;51.060;3.720;2022-12-13T08:10:19;-1.40;99.90
39493;DHT22;25176;51.060;3.720;2022-12-13T08:12:44;-1.40;99.90
39493;DHT22;25176;51.060;3.720;2022-12-13T08:15:10;-1.30;99.90
39493;DHT22;25176;51.060;3.720;2022-12-13T08:17:35;-1.10;99.90
39493;DHT22;25176;51.060;3.720;2022-12-13T08:20:01;-1.00;99.90
39493;DHT22;25176;51.060;3.720;2022-12-13T08:22:26;-0.90;99.90
39493;DHT22;25176;51.060;3.720;2022-12-13T08:24:52;-0.90;99.90
39493;DHT22;25176;51.060;3.720;2022-12-13T08:27:17;-0.80;99.90
39493;DHT22;25176;51.060;3.720;2022-12-13T08:29:43;-0.60;99.90
39493;DHT22;25176;51.060;3.720;2022-12-13T08:32:10;-0.60;99.90
39493;DHT22;25176;51.060;3.720;2022-12-13T08:34:35;-0.60;99.90
39493;DHT22;25176;51.060;3.720;2022-12-13T08:37:01;-0.70;99.90
39493;DHT22;25176;51.060;3.720;2022-12-13T08:39:27;-0.90;99.90
39493;DHT22;25176;51.060;3.720;2022-12-13T08:41:52;-1.00;99.90
39493;DHT22;25176;51.060;3.720;2022-12-13T08:44:18;-1.00;99.90
39493;DHT22;25176;51.060;3.720;2022-12-13T08:46:43;-1.20;99.90
39493;DHT22;25176;51.060;3.720;2022-12-13T08:49:09;-0.90;99.90
39493;DHT22;25176;51.060;3.720;2022-12-13T08:51:37;-0.90;99.90
39493;DHT22;25176;51.060;3.720;2022-12-13T08:54:02;-0.80;99.90
39493;DHT22;25176;51.060;3.720;2022-12-13T08:56:28;-0.70;99.90
39493;DHT22;25176;51.060;3.720;2022-12-13T08:58:53;-0.50;99.90
39493;DHT22;25176;51.060;3.720;2022-12-13T09:01:19;-0.30;99.90
39493;DHT22;25176;51.060;3.720;2022-12-13T09:03:44;-0.30;99.90
39493;DHT22;25176;51.060;3.720;2022-12-13T09:06:11;-0.30;99.90
39493;DHT22;25176;51.060;3.720;2022-12-13T09:08:37;-0.30;99.90
39493;DHT22;25176;51.060;3.720;2022-12-13T09:11:03;-0.30;99.90
39493;DHT22;25176;51.060;3.720;2022-12-13T09:13:29;-0.10;99.90
39493;DHT22;25176;51.060;3.720;2022-12-13T09:15:55;0.20;99.90
39493;DHT22;25176;51.060;3.720;2022-12-13T09:18:21;0.00;99.90
39493;DHT22;25176;51.060;3.720;2022-12-13T09:20:46;0.10;99.90
39493;DHT22;25176;51.060;3.720;2022-12-13T09:23:12;0.40;99.90
39493;DHT22;25176;51.060;3.720;2022-12-13T09:25:37;0.50;99.90
39493;DHT22;25176;51.060;3.720;2022-12-13T09:28:04;0.30;99.90
39493;DHT22;25176;51.060;3.720;2022-12-13T09:30:30;0.60;99.90
39493;DHT22;25176;51.060;3.720;2022-12-13T09:32:55;0.90;99.90
39493;DHT22;25176;51.060;3.720;2022-12-13T09:35:21;0.90;99.70
39493;DHT22;25176;51.060;3.720;2022-12-13T09:37:47;1.00;99.80
39493;DHT22;25176;51.060;3.720;2022-12-13T09:40:20;0.70;99.50
39493;DHT22;25176;51.060;3.720;2022-12-13T09:42:47;0.90;99.90
39493;DHT22;25176;51.060;3.720;2022-12-13T09:45:13;0.60;99.60
39493;DHT22;25176;51.060;3.720;2022-12-13T09:47:39;0.90;99.90
39493;DHT22;25176;51.060;3.720;2022-12-13T09:50:28;1.30;99.80
39493;DHT22;25176;51.060;3.720;2022-12-13T09:52:52;1.50;99.00
39493;DHT22;25176;51.060;3.720;2022-12-13T09:55:22;1.40;98.60
39493;DHT22;25176;51.060;3.720;2022-12-13T09:57:49;1.30;99.10
39493;DHT22;25176;51.060;3.720;2022-12-13T10:00:19;1.90;98.90
39493;DHT22;25176;51.060;3.720;2022-12-13T10:02:46;2.30;98.60
39493;DHT22;25176;51.060;3.720;2022-12-13T10:05:14;2.80;97.80
39493;DHT22;25176;51.060;3.720;2022-12-13T10:07:40;2.50;96.60
39493;DHT22;25176;51.060;3.720;2022-12-13T10:10:06;2.30;97.50
39493;DHT22;25176;51.060;3.720;2022-12-13T10:12:33;1.90;97.90
39493;DHT22;25176;51.060;3.720;2022-12-13T10:15:00;2.00;98.30
39493;DHT22;25176;51.060;3.720;2022-12-13T10:17:27;1.90;98.30
39493;DHT22;25176;51.060;3.720;2022-12-13T10:19:55;1.60;98.40
39493;DHT22;25176;51.060;3.720;2022-12-13T10:22:21;1.30;99.10
39493;DHT22;25176;51.060;3.720;2022-12-13T10:32:31;1.80;98.90
39493;DHT22;25176;51.060;3.720;2022-12-13T10:34:59;1.80;98.60
39493;DHT22;25176;51.060;3.720;2022-12-13T10:37:25;1.40;98.60
39493;DHT22;25176;51.060;3.720;2022-12-13T10:39:52;1.10;99.60
39493;DHT22;25176;51.060;3.720;2022-12-13T10:42:18;1.10;99.80
39493;DHT22;25176;51.060;3.720;2022-12-13T10:44:44;0.90;99.80
39493;DHT22;25176;51.060;3.720;2022-12-13T10:47:14;0.80;99.90
39493;DHT22;25176;51.060;3.720;2022-12-13T10:49:51;0.70;99.90
39493;DHT22;25176;51.060;3.720;2022-12-13T10:52:22;0.90;99.90
39493;DHT22;25176;51.060;3.720;2022-12-13T10:54:48;0.80;99.90
39493;DHT22;25176;51.060;3.720;2022-12-13T10:57:15;0.90;99.90
39493;DHT22;25176;51.060;3.720;2022-12-13T10:59:48;0.70;99.90
39493;DHT22;25176;51.060;3.720;2022-12-13T11:02:30;0.70;99.90
39493;DHT22;25176;51.060;3.720;2022-12-13T11:04:56;0.80;99.90
39493;DHT22;25176;51.060;3.720;2022-12-13T11:09:48;0.80;99.30
39493;DHT22;25176;51.060;3.720;2022-12-13T11:12:14;0.90;99.50
39493;DHT22;25176;51.060;3.720;2022-12-13T11:15:03;1.00;99.30
39493;DHT22;25176;51.060;3.720;2022-12-13T11:17:27;1.20;99.20
39493;DHT22;25176;51.060;3.720;2022-12-13T11:19:53;1.40;99.00
39493;DHT22;25176;51.060;3.720;2022-12-13T11:22:21;1.50;98.20
39493;DHT22;25176;51.060;3.720;2022-12-13T11:24:51;1.50;98.10
39493;DHT22;25176;51.060;3.720;2022-12-13T11:27:24;1.60;98.60
39493;DHT22;25176;51.060;3.720;2022-12-13T11:32:34;1.30;98.40
39493;DHT22;25176;51.060;3.720;2022-12-13T11:35:13;1.40;98.70
39493;DHT22;25176;51.060;3.720;2022-12-13T11:40:26;1.90;98.20
39493;DHT22;25176;51.060;3.720;2022-12-13T11:50:19;1.90;97.90
39493;DHT22;25176;51.060;3.720;2022-12-13T11:52:51;1.90;98.30
39493;DHT22;25176;51.060;3.720;2022-12-13T11:55:18;2.00;97.50
39493;DHT22;25176;51.060;3.720;2022-12-13T11:57:58;1.90;98.30
39493;DHT22;25176;51.060;3.720;2022-12-13T12:00:30;2.10;98.10
39493;DHT22;25176;51.060;3.720;2022-12-13T12:03:43;2.50;97.70
39493;DHT22;25176;51.060;3.720;2022-12-13T12:05:50;2.60;97.30
39493;DHT22;25176;51.060;3.720;2022-12-13T12:13:58;2.50;97.50
39493;DHT22;25176;51.060;3.720;2022-12-13T12:16:27;2.30;97.30
39493;DHT22;25176;51.060;3.720;2022-12-13T12:18:54;2.10;97.80
39493;DHT22;25176;51.060;3.720;2022-12-13T12:21:36;2.00;97.30
39493;DHT22;25176;51.060;3.720;2022-12-13T12:24:10;2.20;97.50
39493;DHT22;25176;51.060;3.720;2022-12-13T12:26:40;2.40;97.40
39493;DHT22;25176;51.060;3.720;2022-12-13T12:30:09;2.50;97.30
39493;DHT22;25176;51.060;3.720;2022-12-13T12:34:39;2.20;97.10
39493;DHT22;25176;51.060;3.720;2022-12-13T12:42:32;1.70;98.30
39493;DHT22;25176;51.060;3.720;2022-12-13T12:45:20;1.70;98.40
39493;DHT22;25176;51.060;3.720;2022-12-13T12:52:52;1.70;98.00
39493;DHT22;25176;51.060;3.720;2022-12-13T12:55:25;1.70;98.10
39493;DHT22;25176;51.060;3.720;2022-12-13T12:57:56;1.60;98.10
39493;DHT22;25176;51.060;3.720;2022-12-13T13:00:25;1.60;98.00
39493;DHT22;25176;51.060;3.720;2022-12-13T13:05:19;1.90;98.40
39493;DHT22;25176;51.060;3.720;2022-12-13T13:07:58;1.90;97.90
39493;DHT22;25176;51.060;3.720;2022-12-13T13:10:25;1.90;97.70
39493;DHT22;25176;51.060;3.720;2022-12-13T13:12:51;1.90;98.00
39493;DHT22;25176;51.060;3.720;2022-12-13T13:17:51;1.60;98.10
39493;DHT22;25176;51.060;3.720;2022-12-13T13:20:20;1.70;98.60
39493;DHT22;25176;51.060;3.720;2022-12-13T13:22:47;1.60;98.90
39493;DHT22;25176;51.060;3.720;2022-12-13T13:27:40;1.50;98.30
39493;DHT22;25176;51.060;3.720;2022-12-13T13:30:20;1.60;98.40
39493;DHT22;25176;51.060;3.720;2022-12-13T13:32:47;1.70;98.20
39493;DHT22;25176;51.060;3.720;2022-12-13T13:37:58;1.90;97.60
39493;DHT22;25176;51.060;3.720;2022-12-13T13:40:25;1.80;97.70
39493;DHT22;25176;51.060;3.720;2022-12-13T13:53:50;2.20;97.30
39493;DHT22;25176;51.060;3.720;2022-12-13T14:12:39;2.20;97.90
39493;DHT22;25176;51.060;3.720;2022-12-13T14:23:00;1.50;98.20
39493;DHT22;25176;51.060;3.720;2022-12-13T14:25:37;1.50;98.30
39493;DHT22;25176;51.060;3.720;2022-12-13T14:28:23;1.40;98.30
39493;DHT22;25176;51.060;3.720;2022-12-13T14:30:51;1.30;98.50
39493;DHT22;25176;51.060;3.720;2022-12-13T14:33:20;1.40;98.50
39493;DHT22;25176;51.060;3.720;2022-12-13T14:35:51;1.40;98.40
39493;DHT22;25176;51.060;3.720;2022-12-13T14:38:21;1.40;98.30
39493;DHT22;25176;51.060;3.720;2022-12-13T14:40:48;1.30;98.20
39493;DHT22;25176;51.060;3.720;2022-12-13T14:43:21;1.20;98.60
39493;DHT22;25176;51.060;3.720;2022-12-13T14:45:47;1.30;98.70
39493;DHT22;25176;51.060;3.720;2022-12-13T14:48:16;1.20;98.30
39493;DHT22;25176;51.060;3.720;2022-12-13T14:50:43;1.20;98.60
39493;DHT22;25176;51.060;3.720;2022-12-13T14:53:31;1.20;98.80
39493;DHT22;25176;51.060;3.720;2022-12-13T14:56:16;1.30;98.70
39493;DHT22;25176;51.060;3.720;2022-12-13T14:59:01;1.30;98.60
39493;DHT22;25176;51.060;3.720;2022-12-13T15:01:34;1.50;98.50
39493;DHT22;25176;51.060;3.720;2022-12-13T15:06:44;1.50;98.50
39493;DHT22;25176;51.060;3.720;2022-12-13T15:09:13;1.40;98.50
39493;DHT22;25176;51.060;3.720;2022-12-13T15:11:41;1.40;98.30
39493;DHT22;25176;51.060;3.720;2022-12-13T15:14:15;1.40;98.60
39493;DHT22;25176;51.060;3.720;2022-12-13T15:16:45;1.40;98.40
39493;DHT22;25176;51.060;3.720;2022-12-13T15:21:36;1.50;98.60
39493;DHT22;25176;51.060;3.720;2022-12-13T15:24:02;1.70;98.30
39493;DHT22;25176;51.060;3.720;2022-12-13T15:26:28;1.60;97.90
39493;DHT22;25176;51.060;3.720;2022-12-13T15:28:56;1.80;98.00
39493;DHT22;25176;51.060;3.720;2022-12-13T15:31:22;1.90;97.70
39493;DHT22;25176;51.060;3.720;2022-12-13T15:33:47;1.60;98.00
39493;DHT22;25176;51.060;3.720;2022-12-13T15:41:24;1.50;98.40
39493;DHT22;25176;51.060;3.720;2022-12-13T15:43:52;1.50;98.00
39493;DHT22;25176;51.060;3.720;2022-12-13T15:46:24;1.50;98.10
39493;DHT22;25176;51.060;3.720;2022-12-13T15:48:50;1.40;98.20
39493;DHT22;25176;51.060;3.720;2022-12-13T15:51:18;1.30;98.40
39493;DHT22;25176;51.060;3.720;2022-12-13T15:56:28;1.10;98.70
39493;DHT22;25176;51.060;3.720;2022-12-13T15:58:54;1.10;98.80
39493;DHT22;25176;51.060;3.720;2022-12-13T16:01:30;1.10;98.80
39493;DHT22;25176;51.060;3.720;2022-12-13T16:03:56;1.10;98.80
39493;DHT22;25176;51.060;3.720;2022-12-13T16:06:22;1.10;98.90
39493;DHT22;25176;51.060;3.720;2022-12-13T16:08:50;1.20;99.00
39493;DHT22;25176;51.060;3.720;2022-12-13T16:11:24;1.40;98.70
39493;DHT22;25176;51.060;3.720;2022-12-13T16:13:50;1.40;98.60
39493;DHT22;25176;51.060;3.720;2022-12-13T16:16:19;1.40;98.50
39493;DHT22;25176;51.060;3.720;2022-12-13T16:18:55;1.50;98.60
39493;DHT22;25176;51.060;3.720;2022-12-13T16:21:22;1.60;98.60
39493;DHT22;25176;51.060;3.720;2022-12-13T16:23:47;1.50;98.50
39493;DHT22;25176;51.060;3.720;2022-12-13T16:26:13;1.60;98.70
39493;DHT22;25176;51.060;3.720;2022-12-13T16:28:39;1.50;98.80
39493;DHT22;25176;51.060;3.720;2022-12-13T16:31:11;1.60;99.10
39493;DHT22;25176;51.060;3.720;2022-12-13T16:33:37;1.70;99.00
39493;DHT22;25176;51.060;3.720;2022-12-13T16:36:02;1.70;98.50
39493;DHT22;25176;51.060;3.720;2022-12-13T16:38:28;1.60;99.10
39493;DHT22;25176;51.060;3.720;2022-12-13T16:40:54;1.50;99.20
39493;DHT22;25176;51.060;3.720;2022-12-13T16:43:21;1.70;99.30
39493;DHT22;25176;51.060;3.720;2022-12-13T16:45:49;1.70;99.10
39493;DHT22;25176;51.060;3.720;2022-12-13T16:48:15;1.60;99.20
39493;DHT22;25176;51.060;3.720;2022-12-13T16:50:41;1.40;99.40
39493;DHT22;25176;51.060;3.720;2022-12-13T16:53:07;1.30;99.40
39493;DHT22;25176;51.060;3.720;2022-12-13T16:55:32;1.40;99.80
39493;DHT22;25176;51.060;3.720;2022-12-13T16:57:59;1.50;99.50
39493;DHT22;25176;51.060;3.720;2022-12-13T17:00:25;1.60;99.40
39493;DHT22;25176;51.060;3.720;2022-12-13T17:02:51;1.60;99.30
39493;DHT22;25176;51.060;3.720;2022-12-13T17:05:17;1.40;99.40
39493;DHT22;25176;51.060;3.720;2022-12-13T17:07:43;1.40;99.60
39493;DHT22;25176;51.060;3.720;2022-12-13T17:10:10;1.60;99.60
39493;DHT22;25176;51.060;3.720;2022-12-13T17:12:36;1.60;99.40
39493;DHT22;25176;51.060;3.720;2022-12-13T17:15:01;1.50;99.30
39493;DHT22;25176;51.060;3.720;2022-12-13T17:17:27;1.50;99.50
39493;DHT22;25176;51.060;3.720;2022-12-13T17:19:52;1.50;99.20
39493;DHT22;25176;51.060;3.720;2022-12-13T17:22:18;1.50;99.00
39493;DHT22;25176;51.060;3.720;2022-12-13T17:24:43;1.40;99.10
39493;DHT22;25176;51.060;3.720;2022-12-13T17:27:09;1.30;98.90
39493;DHT22;25176;51.060;3.720;2022-12-13T17:29:34;1.20;99.40
39493;DHT22;25176;51.060;3.720;2022-12-13T17:32:00;1.00;99.60
39493;DHT22;25176;51.060;3.720;2022-12-13T17:34:26;1.00;99.50
39493;DHT22;25176;51.060;3.720;2022-12-13T17:36:51;1.00;99.60
39493;DHT22;25176;51.060;3.720;2022-12-13T17:39:17;1.00;99.80
39493;DHT22;25176;51.060;3.720;2022-12-13T17:41:42;1.30;99.70
39493;DHT22;25176;51.060;3.720;2022-12-13T17:44:08;1.30;99.40
39493;DHT22;25176;51.060;3.720;2022-12-13T17:46:34;1.00;99.30
39493;DHT22;25176;51.060;3.720;2022-12-13T17:49:00;0.90;99.90
39493;DHT22;25176;51.060;3.720;2022-12-13T17:51:25;1.00;99.90